Grandview Heights, Ohio
Current Conditions -  °F | °C
As of 8:53 PM on Wednesday 26 Nov 2014 (Local Time) from KOSU Reporting Station
Overcast Overcast  
Wind Chill: 25°   Ceiling: 3100
Heat Index: 33°   Visibility: 9mi
Dew Point: 25°   Wind: 10mph
Humidity: 72%   Direction: 340°NNW
Pressure: 30.04"   Gusts: NA
Location:  39.987°N, 83.0425°W
Report Text: KOSU 270153Z 34009KT 9SM OVC031 01/M04 A3004 RMK AO2 SLP181 T00061039
Loading
Personal Weather Stations






























Interactive Weather Map New forecast layout! Learn more

10-Day Weather Forecast

Advertisements
Track Severe Weather on mobile